Список аэропортов
Фактическая погода:

24 мая, 16:00
Температура: +19°C (+18.2*)
Ветер: западный 9 м/с
Давление: *758 мм
разорв. обл.
кучево-дождевые 1680 м
Время (МСК)Темп. СВетерВлажностьДавлениеОблачностьОсадки
15:00+21З, 6 м/с44%1011 гПаоблачнодождь
16:00+20З, 5 м/с52%1012 гПамалооблачнодождь
17:00+21З, 6 м/с43%1012 гПаясно
18:00+19СЗ, 4 м/с53%1012 гПаоблачнодождь
19:00+18СЗ, 1 м/с67%1013 гПаясно
20:00+15З, 1 м/с79%1013 гПамалооблачно
21:00+15ЮЗ, 1 м/с84%1014 гПас прояснениями
22:00+15ЮЗ, 1 м/с83%1014 гПаоблачно
23:00+14Штиль 86%1014 гПаоблачно
25 мая
00:00+14Штиль 88%1014 гПаоблачно
01:00+14СВ, 1 м/с90%1015 гПаоблачно
02:00+14В, 1 м/с88%1015 гПаоблачно
03:00+13В, 2 м/с85%1015 гПас прояснениями
04:00+12В, 3 м/с78%1015 гПаоблачно
05:00+13В, 3 м/с73%1015 гПаоблачно
06:00+14ЮВ, 3 м/с72%1016 гПаоблачно
07:00+16ЮВ, 4 м/с62%1016 гПаоблачно
08:00+18ЮВ, 5 м/с50%1016 гПаоблачно
09:00+20ЮВ, 6 м/с48%1015 гПамалооблачно
10:00+21ЮВ, 6 м/с48%1015 гПаясно
11:00+22ЮВ, 5 м/с45%1015 гПаясно
12:00+24ЮВ, 4 м/с42%1014 гПаясно
13:00+25Ю, 5 м/с39%1014 гПаясно
14:00+25ЮЗ, 5 м/с39%1014 гПаясно
15:00+24ЮЗ, 6 м/с44%1013 гПаоблачнодождь
16:00+24Ю, 5 м/с41%1013 гПамалооблачносл. дождь
17:00+24ЮЗ, 5 м/с44%1013 гПаоблачнодождь
18:00+23Ю, 4 м/с40%1012 гПас прояснениямидождь
19:00+23Ю, 4 м/с40%1012 гПаоблачно
20:00+22Ю, 5 м/с41%1012 гПаоблачно
21:00+21Ю, 6 м/с42%1012 гПас прояснениями
22:00+20Ю, 6 м/с42%1012 гПаясно
23:00+19Ю, 6 м/с45%1012 гПаясно
26 мая
00:00+18Ю, 5 м/с51%1011 гПаясно
01:00+17Ю, 4 м/с57%1011 гПаясно
02:00+16Ю, 4 м/с63%1011 гПаясно
03:00+16Ю, 4 м/с68%1011 гПаясно
04:00+15Ю, 4 м/с71%1010 гПамалооблачно
05:00+16Ю, 5 м/с69%1010 гПамалооблачно
06:00+18Ю, 5 м/с62%1010 гПаоблачно
07:00+18ЮЗ, 5 м/с65%1010 гПаоблачнодождь
08:00+21ЮЗ, 6 м/с52%1010 гПас прояснениями
09:00+23Ю, 7 м/с49%1010 гПас прояснениямисл. дождь
10:00+24Ю, 8 м/с45%1010 гПаоблачно
11:00+24Ю, 8 м/с42%1009 гПаоблачносл. дождь
12:00+25ЮЗ, 7 м/с39%1009 гПаоблачносл. дождь
13:00+23Ю, 6 м/с51%1008 гПаоблачнодождь
14:00+24ЮЗ, 6 м/с45%1008 гПаоблачнодождь
15:00+24Ю, 7 м/с36%1007 гПаоблачно